createdAt,value
2023-01-11T00:12:44.064Z,3.81
2023-01-11T00:42:44.062Z,3.88
2023-01-11T01:12:44.065Z,3.75
2023-01-11T01:42:44.066Z,3.38
2023-01-11T02:12:44.074Z,3.75
2023-01-11T02:42:44.074Z,3.75
2023-01-11T03:12:44.074Z,3.81
2023-01-11T03:42:44.082Z,4
2023-01-11T04:12:44.097Z,4.31
2023-01-11T04:42:44.111Z,4.5
2023-01-11T05:12:44.123Z,4.5
2023-01-11T05:42:44.097Z,4.69
2023-01-11T06:12:44.122Z,4.88
2023-01-11T06:42:44.119Z,4.94
2023-01-11T07:12:44.146Z,5.19
2023-01-11T07:42:44.137Z,5.44
2023-01-11T08:12:44.136Z,5.69
2023-01-11T08:42:44.144Z,5.94
2023-01-11T09:12:44.150Z,6.31
2023-01-11T09:42:44.149Z,6.88
2023-01-11T10:42:44.204Z,7.81
2023-01-11T11:12:44.155Z,7.88
2023-01-11T11:42:44.157Z,7.63
2023-01-11T12:12:44.151Z,7.56
2023-01-11T12:42:44.168Z,7.75
2023-01-11T13:12:44.171Z,7.69
2023-01-11T13:42:44.164Z,7.63
2023-01-11T14:12:44.163Z,7.69
2023-01-11T14:42:44.183Z,7.81
2023-01-11T15:12:44.185Z,7.75
2023-01-11T15:42:44.194Z,7.75
2023-01-11T16:12:44.201Z,7.69
2023-01-11T16:42:44.195Z,8.19
2023-01-11T17:12:44.187Z,7.75
2023-01-11T17:42:44.199Z,7.56
2023-01-11T18:12:44.198Z,7.44
2023-01-11T18:42:44.203Z,7.5
2023-01-11T19:12:44.204Z,7.38
2023-01-11T19:42:44.193Z,7.25
2023-01-11T20:12:44.185Z,7.06
2023-01-11T20:42:44.218Z,6.88
2023-01-11T21:12:44.241Z,6.81
2023-01-11T21:42:44.261Z,6.81
2023-01-11T22:12:44.228Z,6.88
2023-01-11T22:42:44.246Z,6.44
2023-01-11T23:12:44.235Z,6.13
2023-01-11T23:42:44.258Z,6.06
